Yarnell, AZ (85362)

11:28 AM MST on August 02, 2015 (GMT -0700)
Yarnell Proper | | Change Station
CLOSE
Current Station
Personal Weather Station
Location: Yarnell, AZ
Elevation: 4760 ft
Nearby Weather Stations

Elev 4760 ft 34.22 °N, 112.75 °W | Updated 3 minutes ago

Partly Cloudy
Partly Cloudy
88.3 °F
Feels Like 87 °F
N
1.7
Wind Variable Wind from West

Today
High -- | Low -- °F
--% Chance of Precip.
Yesterday
High -- | Low -- °F
Precip. -- in
5:42 AM 7:31 PM
Waning Gibbous, 92% visible
Pressure 29.88 in
Visibility 10.0 miles
Clouds Scattered Clouds 6000 ft
Heat Index 87 °F
Dew Point 57 °F
Humidity 35%
Rainfall 0.00 in
Snow Depth Not available.
UV 9 out of 12
Pollen 2.70 out of 12
Air Quality Not available.
Flu Activity Not available.
METAR KPRC 021753Z 32004KT 10SM SCT060 28/12 A3014 RMK AO2 SLP118 T02780117 10283 20167 51003 $

More Conditions Fewer Conditions

Pressure 29.88 in
Visibility 10.0 miles
Clouds Scattered Clouds 6000 ft
Heat Index 87 °F
Dew Point 57 °F
Humidity 35%
Rainfall 0.00 in
Snow Depth Not available.
UV 9 out of 12
Pollen 2.70 out of 12
Air Quality Not available.
Flu Activity Not available.
METAR KPRC 021753Z 32004KT 10SM SCT060 28/12 A3014 RMK AO2 SLP118 T02780117 10283 20167 51003 $

More Conditions Fewer Conditions

10-Day Weather Forecast

×

Almanac

Astronomy

Aug. 02, 2015 Rise Set
Actual Time
Civil Twilight
Nautical Twilight
Astronomical Twilight
Moon
Length of Visible Light
Length of Day
Tomorrow will be .
, % of the Moon is Illuminated

Today's Extremes

State Highs State Lows

Community

WunderPhotos

Upload Photos

1,843,333 photos uploaded!

WunderBlogs® & News

Nearby

Air Quality

  Air Quality AQ Index Pollutant
Not available.

Snow Depth

Station Depth Elevation

Earthquake Activity

City Distance Mag. Time & Date
Minimum magnitude displayed is 2.5.

Coastal Water Temperatures

Place Temperature

Stations

Nearby Weather Stations

Station Location Temp. Windchill Dew Point Humidity Wind Precip. Elev Updated Type